Time;durP1;ratioP1;P1;durP2;ratioP2;P2;SDS_P1;SDS_P2;PMS_P1;PMS_P2;Temp;Humidity;BMP_temperature;BMP_pressure;BME280_temperature;BME280_humidity;BME280_pressure;Samples;Min_cycle;Max_cycle;Signal;HPM_P1;HPM_P2
2022/05/01 00:07:50;;;;;;;34.9;40.7;;;;;;;-133;85.8;79280;;;;
2022/05/01 00:17:50;;;;;;;34.9;40.7;;;;;;;-133;85.1;79300;;;;
2022/05/01 00:27:49;;;;;;;34.9;40.7;;;;;;;-133;85.2;79310;;;;
2022/05/01 00:37:50;;;;;;;29.3;34.4;;;;;;;-133;85.2;79320;;;;
2022/05/01 00:48:50;;;;;;;29.3;34.4;;;;;;;-133;86.4;79300;;;;
2022/05/01 00:59:50;;;;;;;29.3;34.4;;;;;;;-133;86.1;79300;;;;
2022/05/01 01:10:50;;;;;;;26.6;33.4;;;;;;;-133;88.2;79310;;;;
2022/05/01 01:20:50;;;;;;;26.6;33.4;;;;;;;-133;87.8;79320;;;;
2022/05/01 01:31:49;;;;;;;26.6;33.4;;;;;;;-133;89.1;79340;;;;
2022/05/01 01:42:50;;;;;;;30.8;35.5;;;;;;;-133;90.5;79370;;;;
2022/05/01 01:52:49;;;;;;;30.8;35.5;;;;;;;-133;91.9;79350;;;;
2022/05/01 02:03:49;;;;;;;30.8;35.5;;;;;;;-133;90.3;79360;;;;
2022/05/01 02:13:50;;;;;;;34.8;42.6;;;;;;;-133;90.2;79380;;;;
2022/05/01 02:24:50;;;;;;;34.8;42.6;;;;;;;-133;92.3;79390;;;;
2022/05/01 02:35:49;;;;;;;34.8;42.6;;;;;;;-133;91.8;79390;;;;
2022/05/01 02:45:49;;;;;;;31.8;39.1;;;;;;;-133;92;79420;;;;
2022/05/01 02:55:50;;;;;;;31.8;39.1;;;;;;;-133;91.9;79430;;;;
2022/05/01 03:06:49;;;;;;;31.8;39.1;;;;;;;-133;93.8;79430;;;;
2022/05/01 03:16:49;;;;;;;31.2;34.9;;;;;;;-133;92.4;79450;;;;
2022/05/01 03:27:50;;;;;;;31.2;34.9;;;;;;;-133;94.8;79470;;;;
2022/05/01 03:38:50;;;;;;;27.9;32.3;;;;;;;-133;94.9;79470;;;;
2022/05/01 03:49:50;;;;;;;27.9;32.3;;;;;;;-133;95.4;79440;;;;
2022/05/01 03:59:49;;;;;;;27.9;32.3;;;;;;;-133;95.9;79410;;;;
2022/05/01 04:09:50;;;;;;;28.4;31.7;;;;;;;-133;95.1;79390;;;;
2022/05/01 04:20:51;;;;;;;28.4;31.7;;;;;;;-133;94.2;79350;;;;
2022/05/01 04:31:50;;;;;;;28.4;31.7;;;;;;;-133;93.3;79320;;;;
2022/05/01 04:41:50;;;;;;;35.3;40.2;;;;;;;-133;92.8;79320;;;;
2022/05/01 04:51:50;;;;;;;35.3;40.2;;;;;;;-133;92;79260;;;;
2022/05/01 05:02:50;;;;;;;35.3;40.2;;;;;;;-133;91.4;79200;;;;
2022/05/01 05:12:50;;;;;;;35.2;40.2;;;;;;;-133;90.1;79140;;;;
2022/05/01 05:23:50;;;;;;;35.2;40.2;;;;;;;-133;85.9;79050;;;;
2022/05/01 05:33:50;;;;;;;35.2;40.2;;;;;;;-133;84.1;78980;;;;
2022/05/01 05:43:50;;;;;;;33;39.6;;;;;;;-133;80.6;78910;;;;
2022/05/01 05:54:50;;;;;;;33;39.6;;;;;;;-133;75;78830;;;;
2022/05/01 06:05:50;;;;;;;33;39.6;;;;;;;-133;72.3;78800;;;;
2022/05/01 06:15:50;;;;;;;25;29.2;;;;;;;-133;71.2;78770;;;;
2022/05/01 06:26:50;;;;;;;25;29.2;;;;;;;-133;71;78650;;;;
2022/05/01 06:36:50;;;;;;;22.8;25.9;;;;;;;-133;65.8;78570;;;;
2022/05/01 06:46:50;;;;;;;22.8;25.9;;;;;;;-133;63.5;78500;;;;
2022/05/01 06:56:50;;;;;;;22.8;25.9;;;;;;;-133;61.4;78410;;;;
2022/05/01 07:06:50;;;;;;;21.9;27.7;;;;;;;-133;58.5;78360;;;;
2022/05/01 07:17:50;;;;;;;21.9;27.7;;;;;;;-133;56.9;78340;;;;
2022/05/01 07:27:50;;;;;;;21.9;27.7;;;;;;;-133;58.4;78330;;;;
2022/05/01 07:37:50;;;;;;;17.9;24.5;;;;;;;-133;54.1;78270;;;;
2022/05/01 07:47:50;;;;;;;17.9;24.5;;;;;;;-133;54.6;78230;;;;
2022/05/01 07:58:50;;;;;;;17.9;24.5;;;;;;;-133;52.7;78180;;;;
2022/05/01 08:08:50;;;;;;;17.1;21.5;;;;;;;-133;51.8;78130;;;;
2022/05/01 08:28:50;;;;;;;17.1;21.5;;;;;;;-133;47.5;78020;;;;
2022/05/01 08:39:50;;;;;;;12.4;18.3;;;;;;;-133;47.3;77970;;;;
2022/05/01 08:50:50;;;;;;;12.4;18.3;;;;;;;-133;48.3;77860;;;;
2022/05/01 09:01:52;;;;;;;12.4;18.3;;;;;;;-133;47.3;77830;;;;
2022/05/01 09:12:50;;;;;;;12.3;15.9;;;;;;;-133;46.6;77800;;;;
2022/05/01 09:23:50;;;;;;;12.3;15.9;;;;;;;-133;44.8;77780;;;;
2022/05/01 09:34:50;;;;;;;12.3;15.9;;;;;;;-133;44.1;77740;;;;
2022/05/01 09:44:50;;;;;;;9.3;13.1;;;;;;;-133;41.9;77720;;;;
2022/05/01 09:54:51;;;;;;;9.3;13.1;;;;;;;-133;42.3;77710;;;;
2022/05/01 10:05:50;;;;;;;9.3;13.1;;;;;;;-133;41.4;77670;;;;
2022/05/01 10:16:50;;;;;;;7.8;10.6;;;;;;;-133;39.7;77600;;;;
2022/05/01 10:26:51;;;;;;;7.8;10.6;;;;;;;-133;38.5;77580;;;;
2022/05/01 10:36:50;;;;;;;7;12.9;;;;;;;-133;39.3;77580;;;;
2022/05/01 10:47:50;;;;;;;7;12.9;;;;;;;-133;39.7;77510;;;;
2022/05/01 10:57:50;;;;;;;7;12.9;;;;;;;-133;39.1;77510;;;;
2022/05/01 11:07:50;;;;;;;6.5;9.5;;;;;;;-133;39.6;77460;;;;
2022/05/01 11:17:50;;;;;;;6.5;9.5;;;;;;;-133;38.9;77400;;;;
2022/05/01 11:28:50;;;;;;;6.5;9.5;;;;;;;-133;38.2;77380;;;;
2022/05/01 11:38:50;;;;;;;5.1;9;;;;;;;-133;37.9;77290;;;;
2022/05/01 11:49:50;;;;;;;5.1;9;;;;;;;-133;33.5;77230;;;;
2022/05/01 12:11:50;;;;;;;5;8.3;;;;;;;-133;32.4;77250;;;;
2022/05/01 12:22:50;;;;;;;5;8.3;;;;;;;-133;30.8;77210;;;;
2022/05/01 12:33:50;;;;;;;5;8.3;;;;;;;-133;32.4;77180;;;;
2022/05/01 12:43:51;;;;;;;4.8;9.2;;;;;;;-133;34;77160;;;;
2022/05/01 12:53:51;;;;;;;4.8;9.2;;;;;;;-133;31;77200;;;;
2022/05/01 13:04:50;;;;;;;4.8;9.2;;;;;;;-133;33.7;77250;;;;
2022/05/01 13:14:50;;;;;;;5;8.3;;;;;;;-133;34.4;77290;;;;
2022/05/01 13:25:50;;;;;;;5;8.3;;;;;;;-133;35;77320;;;;
2022/05/01 13:36:50;;;;;;;7;10.2;;;;;;;-133;34.5;77400;;;;
2022/05/01 13:47:50;;;;;;;7;10.2;;;;;;;-133;43.1;77450;;;;
2022/05/01 13:57:50;;;;;;;7;10.2;;;;;;;-133;39.8;77450;;;;
2022/05/01 14:07:50;;;;;;;24.8;29.1;;;;;;;-133;41.2;77550;;;;
2022/05/01 14:18:50;;;;;;;24.8;29.1;;;;;;;-133;43;77540;;;;
2022/05/01 14:29:50;;;;;;;24.8;29.1;;;;;;;-133;41.4;77590;;;;
2022/05/01 14:39:50;;;;;;;7.2;10.8;;;;;;;-133;44.2;77610;;;;
2022/05/01 14:49:50;;;;;;;7.2;10.8;;;;;;;-133;43.7;77620;;;;
2022/05/01 15:10:50;;;;;;;5.6;8.5;;;;;;;-133;47.1;77700;;;;
2022/05/01 15:22:22;;;;;;;5.6;8.5;;;;;;;-133;49.8;77730;;;;
2022/05/01 15:31:50;;;;;;;5.6;8.5;;;;;;;-133;52.1;77750;;;;
2022/05/01 15:41:50;;;;;;;5.3;8.4;;;;;;;-133;53.9;77780;;;;
2022/05/01 16:02:52;;;;;;;5.3;8.4;;;;;;;-133;48.5;77760;;;;
2022/05/01 16:13:50;;;;;;;6.5;8.9;;;;;;;-133;50.2;77760;;;;
2022/05/01 16:24:50;;;;;;;6.5;8.9;;;;;;;-133;51.5;77780;;;;
2022/05/01 16:34:50;;;;;;;6.5;8.9;;;;;;;-133;50.9;77780;;;;
2022/05/01 16:45:52;;;;;;;12.6;18.4;;;;;;;-133;52.6;77810;;;;
2022/05/01 16:55:50;;;;;;;12.6;18.4;;;;;;;-133;51.3;77820;;;;
2022/05/01 17:06:50;;;;;;;8.9;12.2;;;;;;;-133;51.1;77840;;;;
2022/05/01 17:17:50;;;;;;;8.9;12.2;;;;;;;-133;50.6;77880;;;;
2022/05/01 17:28:50;;;;;;;8.9;12.2;;;;;;;-133;53.2;77900;;;;
2022/05/01 17:38:51;;;;;;;7.8;10.5;;;;;;;-133;50.5;77900;;;;
2022/05/01 17:49:50;;;;;;;7.8;10.5;;;;;;;-133;54.2;77950;;;;
2022/05/01 18:00:50;;;;;;;7.8;10.5;;;;;;;-133;57.2;77980;;;;
2022/05/01 18:10:50;;;;;;;9.8;15.2;;;;;;;-133;56.4;77990;;;;
2022/05/01 18:21:50;;;;;;;9.8;15.2;;;;;;;-133;58;78030;;;;
2022/05/01 18:32:50;;;;;;;9.8;15.2;;;;;;;-133;60.2;78080;;;;
2022/05/01 18:43:50;;;;;;;12.9;18.8;;;;;;;-133;61.5;78110;;;;
2022/05/01 18:54:52;;;;;;;12.9;18.8;;;;;;;-133;63.7;78150;;;;
2022/05/01 19:04:50;;;;;;;12.9;18.8;;;;;;;-133;64.7;78200;;;;
2022/05/01 19:14:50;;;;;;;23;27;;;;;;;-133;65.9;78240;;;;
2022/05/01 19:26:22;;;;;;;23;27;;;;;;;-133;67.5;78280;;;;
2022/05/01 19:35:50;;;;;;;23;27;;;;;;;-133;67.9;78310;;;;
2022/05/01 19:45:50;;;;;;;22.6;26.6;;;;;;;-133;67.9;78320;;;;
2022/05/01 19:56:50;;;;;;;22.6;26.6;;;;;;;-133;67.8;78340;;;;
2022/05/01 20:06:50;;;;;;;37.1;44.3;;;;;;;-133;68.6;78350;;;;
2022/05/01 20:16:50;;;;;;;37.1;44.3;;;;;;;-133;68.2;78370;;;;
2022/05/01 20:26:50;;;;;;;37.1;44.3;;;;;;;-133;68.9;78400;;;;
2022/05/01 20:36:50;;;;;;;18;20.5;;;;;;;-133;70.5;78420;;;;
2022/05/01 20:47:50;;;;;;;18;20.5;;;;;;;-133;70.8;78450;;;;
2022/05/01 20:57:50;;;;;;;18;20.5;;;;;;;-133;72.8;78480;;;;
2022/05/01 21:08:50;;;;;;;14.7;19.1;;;;;;;-133;72.3;78490;;;;
2022/05/01 21:19:50;;;;;;;14.7;19.1;;;;;;;-133;72.6;78520;;;;
2022/05/01 21:40:50;;;;;;;14.5;18.2;;;;;;;-133;74;78600;;;;
2022/05/01 21:51:50;;;;;;;14.5;18.2;;;;;;;-133;78.2;78640;;;;
2022/05/01 22:01:50;;;;;;;14.5;18.2;;;;;;;-133;77.1;78660;;;;
2022/05/01 22:12:50;;;;;;;14.1;17.5;;;;;;;-133;77.9;78690;;;;
2022/05/01 22:23:50;;;;;;;14.1;17.5;;;;;;;-133;79.3;78700;;;;
2022/05/01 22:37:29;;;;;;;14.1;17.5;;;;;;;-133;79.1;78680;;;;
2022/05/01 22:45:50;;;;;;;16.3;18.3;;;;;;;-133;79.5;78670;;;;
2022/05/01 22:55:51;;;;;;;16.3;18.3;;;;;;;-133;78.6;78670;;;;
2022/05/01 23:06:50;;;;;;;15.1;20.1;;;;;;;-133;79.2;78680;;;;
2022/05/01 23:17:50;;;;;;;15.1;20.1;;;;;;;-133;79.2;78690;;;;
2022/05/01 23:28:50;;;;;;;15.1;20.1;;;;;;;-133;81.4;78700;;;;
2022/05/01 23:38:50;;;;;;;26;29.7;;;;;;;-133;82;78710;;;;
2022/05/01 23:48:50;;;;;;;26;29.7;;;;;;;-133;84.3;78740;;;;
2022/05/01 23:58:50;;;;;;;26;29.7;;;;;;;-133;84.6;78750;;;;
